Time;durP1;ratioP1;P1;durP2;ratioP2;P2;SDS_P1;SDS_P2;PMS_P1;PMS_P2;Temp;Humidity;BMP_temperature;BMP_pressure;BME280_temperature;BME280_humidity;BME280_pressure;Samples;Min_cycle;Max_cycle;Signal;HPM_P1;HPM_P2
2024/01/22 00:02:25;;;;;;;28.03;16.00;;;0.80;91.70;;;;;;6186567;23;20182;-60
2024/01/22 00:04:52;;;;;;;22.90;15.57;;;0.80;91.70;;;;;;6185538;23;20171;-61
2024/01/22 00:07:19;;;;;;;24.93;16.93;;;0.80;91.80;;;;;;6186391;23;20161;-61
2024/01/22 00:09:46;;;;;;;25.10;16.83;;;0.80;91.80;;;;;;6186083;23;20189;-61
2024/01/22 00:12:13;;;;;;;25.00;16.43;;;0.80;91.80;;;;;;6186209;23;20171;-61
2024/01/22 00:14:40;;;;;;;23.27;15.40;;;0.80;91.70;;;;;;6185449;23;20175;-60
2024/01/22 00:17:07;;;;;;;25.70;15.17;;;0.90;91.70;;;;;;6185516;23;20184;-61
2024/01/22 00:19:35;;;;;;;21.63;14.80;;;0.90;91.70;;;;;;6185733;23;20203;-61
2024/01/22 00:22:02;;;;;;;22.43;14.60;;;0.90;91.60;;;;;;6185837;23;20183;-61
2024/01/22 00:24:29;;;;;;;24.07;15.97;;;0.90;91.50;;;;;;6159789;23;20181;-60
2024/01/22 00:26:56;;;;;;;23.10;14.27;;;0.90;91.40;;;;;;6186432;23;20169;-61
2024/01/22 00:29:24;;;;;;;22.83;14.53;;;0.90;91.20;;;;;;6186373;23;20174;-60
2024/01/22 00:31:51;;;;;;;22.87;14.20;;;0.80;91.10;;;;;;6186188;23;20187;-60
2024/01/22 00:34:18;;;;;;;24.90;15.10;;;0.70;91.00;;;;;;6159951;23;20492;-60
2024/01/22 00:36:45;;;;;;;21.50;14.10;;;0.60;91.10;;;;;;6185636;23;20171;-61
2024/01/22 00:39:12;;;;;;;22.63;15.00;;;0.60;91.20;;;;;;6185709;23;20603;-60
2024/01/22 00:41:39;;;;;;;24.17;14.63;;;0.60;91.20;;;;;;6186038;23;20567;-60
2024/01/22 00:44:07;;;;;;;23.17;14.43;;;0.50;91.30;;;;;;6185754;23;20244;-60
2024/01/22 00:46:34;;;;;;;26.70;13.97;;;0.50;91.30;;;;;;6185664;23;20184;-60
2024/01/22 00:49:03;;;;;;;23.83;14.63;;;0.50;91.30;;;;;;6185858;23;20180;-61
2024/01/22 00:51:30;;;;;;;20.83;13.87;;;0.50;91.40;;;;;;6186352;23;20439;-60
2024/01/22 00:53:58;;;;;;;21.77;13.20;;;0.40;91.40;;;;;;6187873;23;20176;-60
2024/01/22 00:56:25;;;;;;;22.73;15.03;;;0.40;91.40;;;;;;6188705;23;20599;-61
2024/01/22 00:58:52;;;;;;;20.47;13.73;;;0.40;91.40;;;;;;6187736;23;20181;-60
2024/01/22 01:01:19;;;;;;;22.97;14.43;;;0.40;91.40;;;;;;6187910;23;20198;-60
2024/01/22 01:03:46;;;;;;;26.57;14.27;;;0.40;91.40;;;;;;6187992;23;20226;-61
2024/01/22 01:06:13;;;;;;;20.40;12.70;;;0.30;91.40;;;;;;6187572;23;20199;-61
2024/01/22 01:08:40;;;;;;;20.87;13.43;;;0.30;91.50;;;;;;6187618;23;20195;-60
2024/01/22 01:11:07;;;;;;;19.20;13.20;;;0.30;91.50;;;;;;6187722;23;20456;-61
2024/01/22 01:13:34;;;;;;;21.07;13.33;;;0.30;91.50;;;;;;6188131;23;20183;-61
2024/01/22 01:16:02;;;;;;;22.63;12.77;;;0.30;91.50;;;;;;6187833;23;20257;-60
2024/01/22 01:18:29;;;;;;;18.67;13.13;;;0.30;91.50;;;;;;6187749;23;20185;-60
2024/01/22 01:20:56;;;;;;;22.80;13.97;;;0.30;91.50;;;;;;6187476;23;20204;-61
2024/01/22 01:23:26;;;;;;;19.93;13.23;;;0.30;91.60;;;;;;6187858;23;20179;-60
2024/01/22 01:25:53;;;;;;;22.83;13.40;;;0.30;91.50;;;;;;6187409;23;20261;-60
2024/01/22 01:28:20;;;;;;;18.90;12.83;;;0.20;91.50;;;;;;6187771;23;20188;-61
2024/01/22 01:30:48;;;;;;;20.03;12.87;;;0.20;91.50;;;;;;6187901;23;20465;-60
2024/01/22 01:33:15;;;;;;;18.67;12.53;;;0.20;91.40;;;;;;6187369;23;20185;-60
2024/01/22 01:35:44;;;;;;;18.40;12.67;;;0.20;91.40;;;;;;6161354;23;20187;-60
2024/01/22 01:38:12;;;;;;;19.63;12.63;;;0.20;91.40;;;;;;6187723;23;20596;-60
2024/01/22 01:40:42;;;;;;;19.40;11.90;;;0.20;91.40;;;;;;6187112;23;20197;-60
2024/01/22 01:43:09;;;;;;;18.30;11.23;;;0.20;91.40;;;;;;6187810;23;20621;-60
2024/01/22 01:45:36;;;;;;;18.80;11.93;;;0.20;91.50;;;;;;6187629;23;20167;-60
2024/01/22 01:48:04;;;;;;;15.70;11.53;;;0.20;91.80;;;;;;6187132;23;20180;-60
2024/01/22 01:50:32;;;;;;;24.33;12.73;;;0.20;91.50;;;;;;6187130;23;20176;-61
2024/01/22 01:53:00;;;;;;;16.70;10.70;;;0.20;91.40;;;;;;6187355;23;20660;-60
2024/01/22 01:55:28;;;;;;;16.13;11.17;;;0.20;91.40;;;;;;6186457;23;20231;-60
2024/01/22 01:57:57;;;;;;;15.03;10.87;;;0.20;91.30;;;;;;6185982;23;20651;-60
2024/01/22 02:00:31;;;;;;;15.07;9.90;;;0.10;91.20;;;;;;6186018;23;20185;-61
2024/01/22 02:02:58;;;;;;;13.30;10.00;;;0.10;91.20;;;;;;6185050;23;20178;-60
2024/01/22 02:05:26;;;;;;;15.67;11.30;;;0.10;91.10;;;;;;6185881;23;20224;-61
2024/01/22 02:07:53;;;;;;;16.47;10.47;;;0.10;91.10;;;;;;6185852;23;20204;-60
2024/01/22 02:10:20;;;;;;;19.30;10.10;;;0.00;91.10;;;;;;6185073;23;20241;-61
2024/01/22 02:12:47;;;;;;;17.83;10.13;;;0.00;91.10;;;;;;6185389;23;20255;-60
2024/01/22 02:15:14;;;;;;;12.97;9.50;;;0.00;91.10;;;;;;6184750;23;20181;-60
2024/01/22 02:17:42;;;;;;;18.40;10.23;;;0.00;91.10;;;;;;6185200;23;20177;-60
2024/01/22 02:20:09;;;;;;;15.17;10.40;;;0.00;91.10;;;;;;6184731;23;20262;-60
2024/01/22 02:22:37;;;;;;;14.80;9.97;;;-0.10;91.10;;;;;;6158832;23;20490;-60
2024/01/22 02:25:04;;;;;;;16.50;9.60;;;-0.10;91.00;;;;;;6184784;23;20180;-60
2024/01/22 02:27:31;;;;;;;14.77;9.87;;;-0.10;91.00;;;;;;6184703;23;20645;-61
2024/01/22 02:29:58;;;;;;;14.43;9.03;;;-0.10;91.00;;;;;;6184224;23;20179;-61
2024/01/22 02:32:25;;;;;;;15.00;9.93;;;-0.20;91.00;;;;;;6184247;23;20531;-60
2024/01/22 02:34:53;;;;;;;19.70;9.27;;;-0.20;91.10;;;;;;6184725;23;20185;-61
2024/01/22 02:37:20;;;;;;;13.70;8.37;;;-0.20;91.10;;;;;;6182965;23;20178;-61
2024/01/22 02:39:47;;;;;;;15.10;9.17;;;-0.20;91.10;;;;;;6184169;23;20216;-60
2024/01/22 02:42:14;;;;;;;12.57;8.93;;;-0.30;91.00;;;;;;6183988;23;20612;-60
2024/01/22 02:44:41;;;;;;;18.23;8.93;;;-0.30;91.00;;;;;;6184250;23;20172;-61
2024/01/22 02:47:08;;;;;;;12.20;8.60;;;-0.30;91.10;;;;;;6183842;23;20652;-60
2024/01/22 02:49:35;;;;;;;15.77;9.50;;;-0.30;91.10;;;;;;6184520;23;20228;-60
2024/01/22 02:52:03;;;;;;;12.20;8.67;;;-0.30;91.10;;;;;;6184904;23;20180;-61
2024/01/22 02:54:30;;;;;;;11.57;8.33;;;-0.30;91.10;;;;;;6185421;23;20183;-61
2024/01/22 02:56:57;;;;;;;14.23;8.43;;;-0.30;91.20;;;;;;6184514;23;20597;-60
2024/01/22 02:59:25;;;;;;;11.57;7.93;;;-0.30;91.20;;;;;;6184714;23;20178;-60
2024/01/22 03:01:52;;;;;;;12.57;8.10;;;-0.30;91.10;;;;;;6185159;23;20263;-61
2024/01/22 03:04:19;;;;;;;15.03;8.17;;;-0.20;91.10;;;;;;6185062;23;20178;-61
2024/01/22 03:06:46;;;;;;;11.10;7.43;;;-0.30;91.00;;;;;;6184817;23;20201;-60
2024/01/22 03:09:15;;;;;;;12.77;7.47;;;-0.30;90.90;;;;;;6185063;23;20203;-60
2024/01/22 03:11:42;;;;;;;14.63;8.07;;;-0.30;91.20;;;;;;6184949;23;20667;-61
2024/01/22 03:14:09;;;;;;;12.03;8.03;;;-0.30;90.90;;;;;;6184738;23;20174;-60
2024/01/22 03:16:36;;;;;;;13.20;6.93;;;-0.30;91.00;;;;;;6184851;23;20497;-60
2024/01/22 03:19:03;;;;;;;15.90;8.13;;;-0.30;90.90;;;;;;6158991;23;20210;-60
2024/01/22 03:21:30;;;;;;;14.43;7.40;;;-0.40;90.90;;;;;;6184457;23;20205;-61
2024/01/22 03:23:57;;;;;;;10.27;7.33;;;-0.40;90.80;;;;;;6185069;23;20208;-60
2024/01/22 03:26:25;;;;;;;11.70;7.40;;;-0.40;90.80;;;;;;6184453;23;20174;-60
2024/01/22 03:28:53;;;;;;;13.33;7.30;;;-0.40;90.80;;;;;;6184946;23;20174;-61
2024/01/22 03:31:24;;;;;;;11.30;7.80;;;-0.40;90.90;;;;;;6184706;23;20176;-60
2024/01/22 03:33:52;;;;;;;13.87;7.77;;;-0.40;90.90;;;;;;6184448;23;20250;-60
2024/01/22 03:36:23;;;;;;;21.40;8.47;;;-0.40;91.00;;;;;;6184742;23;20485;-61
2024/01/22 03:38:50;;;;;;;15.50;8.20;;;-0.50;91.00;;;;;;6185111;23;20675;-60
2024/01/22 03:41:17;;;;;;;12.23;8.10;;;-0.40;91.00;;;;;;6184400;23;20245;-60
2024/01/22 03:43:45;;;;;;;11.27;7.77;;;-0.40;91.30;;;;;;6185050;23;20198;-60
2024/01/22 03:46:14;;;;;;;10.30;7.40;;;-0.40;91.00;;;;;;6184013;23;20273;-60
2024/01/22 03:48:41;;;;;;;9.93;7.07;;;-0.40;90.90;;;;;;6184415;23;20241;-60
2024/01/22 03:51:08;;;;;;;10.03;7.00;;;-0.40;90.90;;;;;;6184413;23;20177;-60
2024/01/22 03:53:36;;;;;;;11.67;7.90;;;-0.40;90.80;;;;;;6184712;23;20578;-60
2024/01/22 03:56:05;;;;;;;10.33;7.23;;;-0.40;90.80;;;;;;6184935;23;20175;-61
2024/01/22 03:58:33;;;;;;;10.17;7.07;;;-0.40;90.90;;;;;;6183908;23;20210;-60
2024/01/22 04:01:01;;;;;;;10.13;7.00;;;-0.40;90.90;;;;;;6184891;23;20272;-60
2024/01/22 04:03:30;;;;;;;11.70;7.53;;;-0.50;90.90;;;;;;6184383;23;20165;-60
2024/01/22 04:05:58;;;;;;;12.73;7.97;;;-0.40;90.90;;;;;;6185054;23;20323;-60
2024/01/22 04:08:25;;;;;;;16.37;7.47;;;-0.50;90.90;;;;;;6184601;23;20178;-60
2024/01/22 04:10:52;;;;;;;9.40;6.90;;;-0.50;90.90;;;;;;6184608;23;20187;-60
2024/01/22 04:13:19;;;;;;;13.43;7.20;;;-0.50;90.90;;;;;;6184718;23;20188;-60
2024/01/22 04:15:52;;;;;;;10.87;7.37;;;-0.50;90.80;;;;;;6184617;23;20516;-60
2024/01/22 04:18:19;;;;;;;10.73;7.07;;;-0.50;90.80;;;;;;6184369;23;20207;-60
2024/01/22 04:20:47;;;;;;;12.00;7.00;;;-0.60;90.80;;;;;;6184614;23;20198;-60
2024/01/22 04:23:14;;;;;;;11.03;7.07;;;-0.60;90.80;;;;;;6183830;23;20169;-60
2024/01/22 04:25:41;;;;;;;10.13;7.20;;;-0.70;90.70;;;;;;6184341;23;20173;-60
2024/01/22 04:28:08;;;;;;;10.23;7.07;;;-0.70;90.70;;;;;;6183369;23;20586;-60
2024/01/22 04:30:35;;;;;;;10.33;6.27;;;-0.70;90.80;;;;;;6184072;23;20177;-60
2024/01/22 04:33:06;;;;;;;9.93;6.20;;;-0.80;90.70;;;;;;6182775;23;20185;-60
2024/01/22 04:35:33;;;;;;;13.37;6.77;;;-0.80;90.80;;;;;;6184319;23;20204;-60
2024/01/22 04:38:01;;;;;;;9.50;6.17;;;-0.80;90.70;;;;;;6183489;23;20296;-60
2024/01/22 04:40:28;;;;;;;9.90;7.30;;;-0.90;90.70;;;;;;6184185;23;20293;-60
2024/01/22 04:42:55;;;;;;;12.20;6.07;;;-0.80;90.80;;;;;;6182222;23;20202;-60
2024/01/22 04:45:22;;;;;;;8.93;5.50;;;-0.90;90.80;;;;;;6184281;23;20653;-60
2024/01/22 04:47:49;;;;;;;11.30;6.80;;;-0.90;90.70;;;;;;6184328;23;20245;-60
2024/01/22 04:50:17;;;;;;;11.07;6.77;;;-0.90;90.70;;;;;;6184298;23;20192;-60
2024/01/22 04:52:44;;;;;;;11.17;7.00;;;-0.90;90.70;;;;;;6158458;23;20192;-60
2024/01/22 04:55:11;;;;;;;9.80;7.17;;;-0.90;90.70;;;;;;6184186;23;20177;-60
2024/01/22 04:57:47;;;;;;;13.03;6.63;;;-0.90;90.80;;;;;;6184319;23;20589;-60
2024/01/22 05:00:14;;;;;;;11.33;7.00;;;-0.90;90.80;;;;;;6183438;23;20195;-60
2024/01/22 05:02:41;;;;;;;10.83;6.50;;;-0.90;91.10;;;;;;6184631;23;20163;-60
2024/01/22 05:05:08;;;;;;;9.70;6.67;;;-0.90;90.80;;;;;;6183918;23;20225;-60
2024/01/22 05:07:35;;;;;;;12.13;7.23;;;-0.90;90.80;;;;;;6183691;23;20196;-60
2024/01/22 05:10:06;;;;;;;10.27;7.00;;;-0.90;90.80;;;;;;6184038;23;20202;-60
2024/01/22 05:12:33;;;;;;;11.97;6.83;;;-0.90;90.80;;;;;;6184278;23;20178;-60
2024/01/22 05:15:00;;;;;;;12.70;6.67;;;-0.90;90.80;;;;;;6183817;23;20181;-60
2024/01/22 05:17:28;;;;;;;19.10;8.77;;;-0.90;90.80;;;;;;6184463;23;20248;-60
2024/01/22 05:19:55;;;;;;;9.43;6.63;;;-0.90;90.80;;;;;;6157991;23;20174;-60
2024/01/22 05:22:23;;;;;;;9.17;6.20;;;-0.90;90.80;;;;;;6184240;23;20249;-60
2024/01/22 05:24:50;;;;;;;10.40;6.67;;;-0.90;90.80;;;;;;6183773;23;20226;-60
2024/01/22 05:27:17;;;;;;;9.03;6.37;;;-0.90;90.70;;;;;;6184065;23;20177;-60
2024/01/22 05:29:44;;;;;;;10.83;6.93;;;-0.90;90.70;;;;;;6183814;23;20175;-60
2024/01/22 05:32:12;;;;;;;8.40;6.43;;;-0.90;90.70;;;;;;6184277;23;20188;-59
2024/01/22 05:34:39;;;;;;;13.83;6.70;;;-0.90;90.70;;;;;;6183897;23;20177;-60
2024/01/22 05:37:06;;;;;;;9.57;6.23;;;-0.90;90.70;;;;;;6184174;23;20177;-60
2024/01/22 05:39:33;;;;;;;11.53;6.63;;;-0.90;90.80;;;;;;6159522;23;20246;-60
2024/01/22 05:42:00;;;;;;;13.07;6.93;;;-0.80;90.80;;;;;;6185938;23;20268;-59
2024/01/22 05:44:27;;;;;;;14.40;7.07;;;-0.80;90.70;;;;;;6185505;23;20172;-60
2024/01/22 05:46:55;;;;;;;11.73;6.20;;;-0.80;90.70;;;;;;6186182;23;20177;-60
2024/01/22 05:49:22;;;;;;;10.17;6.40;;;-0.70;90.70;;;;;;6185145;23;20168;-60
2024/01/22 05:51:52;;;;;;;10.30;5.50;;;-0.70;90.70;;;;;;6161152;23;20248;-60
2024/01/22 05:54:19;;;;;;;8.00;5.80;;;-0.70;90.70;;;;;;6185108;23;20653;-59
2024/01/22 05:56:46;;;;;;;11.73;6.13;;;-0.60;90.70;;;;;;6185974;23;20163;-60
2024/01/22 05:59:13;;;;;;;11.03;6.37;;;-0.60;90.60;;;;;;6185984;23;20171;-60
2024/01/22 06:01:40;;;;;;;10.37;6.40;;;-0.60;90.60;;;;;;6184523;23;20551;-60
2024/01/22 06:04:07;;;;;;;8.40;5.70;;;-0.50;90.60;;;;;;6185339;23;20202;-60
2024/01/22 06:06:36;;;;;;;12.93;5.97;;;-0.50;90.50;;;;;;6184945;23;20281;-59
2024/01/22 06:09:03;;;;;;;9.23;5.60;;;-0.50;90.40;;;;;;6185868;23;20205;-60
2024/01/22 06:11:30;;;;;;;7.00;5.27;;;-0.50;90.30;;;;;;6159567;23;20581;-60
2024/01/22 06:13:57;;;;;;;12.10;6.00;;;-0.40;90.30;;;;;;6185500;23;20456;-60
2024/01/22 06:16:29;;;;;;;11.50;5.47;;;-0.50;90.40;;;;;;6185496;23;20579;-59
2024/01/22 06:18:56;;;;;;;9.13;5.93;;;-0.50;90.00;;;;;;6185458;23;20653;-60
2024/01/22 06:21:25;;;;;;;8.73;5.33;;;-0.60;89.90;;;;;;6185267;23;20257;-60
2024/01/22 06:23:52;;;;;;;7.97;5.30;;;-0.60;90.00;;;;;;6185500;23;20193;-59
2024/01/22 06:26:21;;;;;;;9.03;5.80;;;-0.60;90.10;;;;;;6185733;23;20557;-58
2024/01/22 06:28:48;;;;;;;9.17;5.40;;;-0.60;90.10;;;;;;6185451;23;20193;-59
2024/01/22 06:31:16;;;;;;;11.20;6.13;;;-0.70;90.10;;;;;;6159002;23;20178;-59
2024/01/22 06:33:43;;;;;;;16.30;6.63;;;-0.70;90.10;;;;;;6185493;23;20172;-59
2024/01/22 06:36:11;;;;;;;11.17;6.13;;;-0.70;90.10;;;;;;6185284;23;20173;-60
2024/01/22 06:38:38;;;;;;;9.93;5.97;;;-0.70;90.10;;;;;;6185548;23;20173;-59
2024/01/22 06:41:11;;;;;;;15.80;7.83;;;-0.70;90.10;;;;;;6184932;23;20191;-59
2024/01/22 06:43:39;;;;;;;11.63;7.27;;;-0.80;90.10;;;;;;6185485;23;20176;-59
2024/01/22 06:46:06;;;;;;;18.67;7.60;;;-0.80;90.10;;;;;;6183499;23;20181;-59
2024/01/22 06:48:33;;;;;;;14.37;8.17;;;-0.80;90.10;;;;;;6183835;23;20166;-59
2024/01/22 06:51:01;;;;;;;18.03;8.27;;;-0.80;90.10;;;;;;6183909;23;20236;-59
2024/01/22 06:53:28;;;;;;;12.27;7.00;;;-0.80;90.20;;;;;;6184043;23;20614;-59
2024/01/22 06:55:55;;;;;;;11.47;7.27;;;-0.80;90.50;;;;;;6184277;23;20187;-61
2024/01/22 06:58:22;;;;;;;8.13;5.40;;;-0.70;90.30;;;;;;6185364;23;20499;-59
2024/01/22 07:00:51;;;;;;;10.33;5.47;;;-0.50;90.10;;;;;;6183925;23;20188;-60
2024/01/22 07:03:23;;;;;;;11.30;5.67;;;-0.50;89.50;;;;;;6184443;23;20192;-60
2024/01/22 07:05:52;;;;;;;9.70;5.37;;;-0.50;89.30;;;;;;6186816;23;20212;-60
2024/01/22 07:08:20;;;;;;;7.90;5.20;;;-0.50;89.20;;;;;;6186560;23;20529;-59
2024/01/22 07:10:48;;;;;;;9.47;5.30;;;-0.50;89.30;;;;;;6186727;23;20201;-59
2024/01/22 07:13:15;;;;;;;9.30;5.07;;;-0.50;89.30;;;;;;6186914;23;20174;-59
2024/01/22 07:15:42;;;;;;;13.20;4.77;;;-0.50;89.20;;;;;;6186626;23;20241;-59
2024/01/22 07:18:10;;;;;;;20.83;5.37;;;-0.50;89.30;;;;;;6187012;23;20238;-59
2024/01/22 07:20:37;;;;;;;9.43;6.07;;;-0.30;89.40;;;;;;6186844;23;20463;-59
2024/01/22 07:23:05;;;;;;;5.87;4.53;;;-0.20;88.90;;;;;;6187263;23;20627;-59
2024/01/22 07:25:36;;;;;;;11.27;5.10;;;0.00;88.20;;;;;;6187280;23;20174;-59
2024/01/22 07:28:04;;;;;;;7.47;5.03;;;0.10;87.50;;;;;;6187159;23;20557;-59
2024/01/22 07:30:31;;;;;;;11.03;5.27;;;0.10;87.20;;;;;;6187195;23;20447;-60
2024/01/22 07:32:58;;;;;;;11.07;5.10;;;0.10;87.30;;;;;;6187728;23;20178;-59
2024/01/22 07:35:26;;;;;;;10.37;5.20;;;0.10;88.10;;;;;;6187021;23;20199;-59
2024/01/22 07:37:53;;;;;;;10.03;5.23;;;0.10;87.70;;;;;;6186938;23;20169;-59
2024/01/22 07:40:20;;;;;;;9.90;5.07;;;0.10;87.90;;;;;;6187159;23;20180;-59
2024/01/22 07:42:47;;;;;;;11.60;6.07;;;0.10;88.00;;;;;;6186741;23;20201;-60
2024/01/22 07:45:15;;;;;;;9.33;5.97;;;0.10;88.10;;;;;;6187113;23;20277;-59
2024/01/22 07:47:43;;;;;;;10.57;5.67;;;0.10;88.20;;;;;;6187533;23;20577;-59
2024/01/22 07:50:12;;;;;;;8.57;4.93;;;0.20;88.30;;;;;;6187253;23;20168;-59
2024/01/22 07:52:40;;;;;;;8.40;5.27;;;0.30;88.40;;;;;;6186790;23;20183;-59
2024/01/22 07:55:13;;;;;;;15.43;6.33;;;0.30;88.30;;;;;;6161141;23;20198;-59
2024/01/22 07:57:40;;;;;;;10.13;5.83;;;0.40;88.30;;;;;;6186564;23;20264;-59
2024/01/22 08:00:11;;;;;;;11.57;6.07;;;0.50;88.30;;;;;;6186526;23;20248;-59
2024/01/22 08:02:39;;;;;;;10.97;6.37;;;0.50;88.30;;;;;;6186573;23;20185;-59
2024/01/22 08:05:07;;;;;;;7.93;5.13;;;0.60;88.40;;;;;;6186660;23;20258;-60
2024/01/22 08:07:34;;;;;;;9.30;5.80;;;0.70;88.40;;;;;;6186576;23;20157;-59
2024/01/22 08:10:01;;;;;;;7.43;4.80;;;0.80;88.40;;;;;;6186981;23;20185;-59
2024/01/22 08:12:28;;;;;;;6.77;4.70;;;0.90;88.60;;;;;;6186597;23;20597;-59
2024/01/22 08:14:55;;;;;;;9.17;5.53;;;1.00;88.30;;;;;;6187344;23;20582;-61
2024/01/22 08:17:23;;;;;;;9.33;5.87;;;1.10;88.20;;;;;;6186438;23;20233;-60
2024/01/22 08:19:50;;;;;;;9.60;5.90;;;1.20;88.20;;;;;;6186832;23;20182;-60
2024/01/22 08:22:17;;;;;;;7.37;5.27;;;1.30;88.10;;;;;;6185994;23;20203;-60
2024/01/22 08:24:44;;;;;;;8.67;4.90;;;1.40;88.10;;;;;;6186611;23;20663;-60
2024/01/22 08:27:11;;;;;;;8.13;5.03;;;1.50;88.00;;;;;;6186188;23;20484;-60
2024/01/22 08:29:38;;;;;;;9.60;4.63;;;1.60;88.00;;;;;;6186544;23;20237;-60
2024/01/22 08:32:06;;;;;;;10.60;5.40;;;1.70;87.90;;;;;;6186599;23;20183;-60
2024/01/22 08:34:38;;;;;;;7.57;4.90;;;1.80;87.80;;;;;;6186404;23;20571;-59
2024/01/22 08:37:06;;;;;;;10.43;5.40;;;1.90;87.50;;;;;;6186782;23;20243;-60
2024/01/22 08:39:36;;;;;;;8.77;5.73;;;2.00;87.40;;;;;;6186429;23;20159;-60
2024/01/22 08:42:04;;;;;;;10.50;5.43;;;2.10;87.30;;;;;;6186546;23;20245;-60
2024/01/22 08:44:31;;;;;;;6.03;4.90;;;2.20;87.10;;;;;;6185463;23;20257;-60
2024/01/22 08:46:58;;;;;;;10.60;4.73;;;2.30;87.00;;;;;;6186315;23;20175;-60
2024/01/22 08:49:25;;;;;;;8.97;5.13;;;2.40;86.80;;;;;;6186327;23;20182;-60
2024/01/22 08:51:52;;;;;;;12.70;5.30;;;2.60;86.60;;;;;;6186523;23;20198;-59
2024/01/22 08:54:19;;;;;;;6.60;4.90;;;2.60;86.30;;;;;;6186837;23;20179;-60
2024/01/22 08:56:46;;;;;;;10.03;5.07;;;2.80;86.10;;;;;;6186283;23;20185;-59
2024/01/22 08:59:14;;;;;;;9.33;5.10;;;2.90;85.80;;;;;;6160695;23;20179;-59
2024/01/22 09:01:42;;;;;;;8.57;5.10;;;3.00;85.60;;;;;;6186254;23;20265;-60
2024/01/22 09:04:09;;;;;;;7.77;4.43;;;3.10;85.30;;;;;;6186182;23;20182;-60
2024/01/22 09:06:37;;;;;;;6.73;4.63;;;3.30;85.70;;;;;;6186129;23;20219;-60
2024/01/22 09:09:05;;;;;;;7.60;4.43;;;3.40;84.70;;;;;;6135778;23;20178;-60
2024/01/22 09:11:32;;;;;;;6.87;5.37;;;3.40;84.30;;;;;;6185929;23;20179;-60
2024/01/22 09:13:59;;;;;;;10.43;5.40;;;3.50;84.10;;;;;;6187241;23;20186;-60
2024/01/22 09:16:27;;;;;;;9.23;5.07;;;3.60;83.90;;;;;;6188288;23;20213;-60
2024/01/22 09:18:54;;;;;;;8.03;4.87;;;3.60;83.60;;;;;;6188093;23;20202;-61
2024/01/22 09:21:21;;;;;;;9.40;4.77;;;3.60;83.30;;;;;;6162384;23;20198;-60
2024/01/22 09:23:48;;;;;;;9.80;5.40;;;3.60;83.10;;;;;;6188088;23;20637;-59
2024/01/22 09:26:15;;;;;;;8.57;5.20;;;3.60;83.10;;;;;;6188123;23;20193;-60
2024/01/22 09:28:42;;;;;;;14.03;5.03;;;3.70;83.10;;;;;;6188130;23;20556;-59
2024/01/22 09:31:09;;;;;;;8.50;4.70;;;3.70;83.00;;;;;;6187787;23;20249;-59
2024/01/22 09:33:36;;;;;;;8.70;4.97;;;3.80;82.90;;;;;;6187829;23;20178;-60
2024/01/22 09:36:04;;;;;;;9.93;5.50;;;4.00;82.70;;;;;;6188189;23;20178;-60
2024/01/22 09:38:31;;;;;;;8.87;5.97;;;4.00;82.40;;;;;;6188095;23;20510;-60
2024/01/22 09:40:58;;;;;;;8.27;5.00;;;4.20;82.20;;;;;;6187606;23;20195;-60
2024/01/22 09:43:25;;;;;;;6.83;4.87;;;4.30;82.10;;;;;;6188269;23;20519;-59
2024/01/22 09:45:54;;;;;;;7.33;5.47;;;4.40;81.90;;;;;;6187652;23;20182;-60
2024/01/22 09:48:21;;;;;;;9.50;5.67;;;4.50;81.70;;;;;;6188001;23;20489;-60
2024/01/22 09:50:51;;;;;;;7.87;5.20;;;4.60;81.40;;;;;;6187986;23;20248;-59
2024/01/22 09:53:21;;;;;;;9.77;5.60;;;4.60;81.10;;;;;;6187766;23;20533;-60
2024/01/22 09:55:50;;;;;;;8.73;5.10;;;4.80;80.90;;;;;;6187604;23;20257;-60
2024/01/22 09:58:41;;;;;;;8.37;6.17;;;4.80;80.70;;;;;;6188024;23;20174;-59
2024/01/22 10:01:12;;;;;;;8.93;5.63;;;4.90;80.70;;;;;;6188001;23;20170;-60
2024/01/22 10:03:40;;;;;;;10.93;5.77;;;5.00;80.80;;;;;;6188262;23;20459;-61
2024/01/22 10:06:08;;;;;;;9.73;6.00;;;5.10;80.60;;;;;;6187584;23;20573;-60
2024/01/22 10:08:35;;;;;;;9.00;5.67;;;5.20;80.40;;;;;;6187778;23;20607;-60
2024/01/22 10:11:04;;;;;;;9.67;7.20;;;5.30;80.40;;;;;;6188287;23;20179;-61
2024/01/22 10:13:47;;;;;;;10.07;6.70;;;5.40;80.50;;;;;;6187522;23;20527;-61
2024/01/22 10:16:15;;;;;;;9.43;6.77;;;5.50;80.10;;;;;;6187950;23;20474;-60
2024/01/22 10:19:16;;;;;;;9.93;6.67;;;5.50;80.10;;;;;;6187650;23;20167;-60
2024/01/22 10:21:43;;;;;;;11.27;7.20;;;5.60;79.70;;;;;;6157085;23;20197;-60
2024/01/22 10:24:10;;;;;;;12.13;6.50;;;5.70;79.50;;;;;;6161662;23;20328;-61
2024/01/22 10:26:38;;;;;;;13.00;7.67;;;5.80;79.20;;;;;;6187185;23;20171;-59
2024/01/22 10:29:15;;;;;;;15.57;7.57;;;5.80;79.20;;;;;;6187491;23;20180;-60
2024/01/22 10:31:54;;;;;;;10.63;7.47;;;5.90;79.20;;;;;;6161877;23;20163;-59
2024/01/22 10:34:27;;;;;;;13.37;7.90;;;6.00;79.20;;;;;;6187573;23;20175;-60
2024/01/22 10:37:12;;;;;;;10.77;7.47;;;6.10;79.20;;;;;;6161258;23;20611;-60
2024/01/22 10:39:41;;;;;;;9.83;7.73;;;6.20;79.00;;;;;;6187375;23;20708;-60
2024/01/22 10:42:13;;;;;;;14.20;8.40;;;6.30;77.80;;;;;;6187186;23;20188;-60
2024/01/22 10:44:45;;;;;;;11.77;7.90;;;6.40;77.00;;;;;;6187144;23;20276;-59
2024/01/22 10:47:14;;;;;;;10.27;7.10;;;6.50;77.10;;;;;;6187408;23;20152;-59
2024/01/22 10:49:44;;;;;;;11.80;7.77;;;6.60;77.10;;;;;;6187214;23;20164;-59
2024/01/22 10:52:13;;;;;;;12.33;8.43;;;6.60;76.80;;;;;;6187251;23;20591;-59
2024/01/22 10:54:40;;;;;;;10.20;7.63;;;6.70;77.30;;;;;;6187238;23;20175;-60
2024/01/22 10:57:18;;;;;;;11.63;8.60;;;6.80;77.60;;;;;;6161209;23;20177;-60
2024/01/22 10:59:48;;;;;;;13.20;9.03;;;6.90;77.30;;;;;;6187168;23;20262;-59
2024/01/22 11:02:21;;;;;;;14.63;9.27;;;6.90;75.70;;;;;;6187150;23;20202;-60
2024/01/22 11:04:52;;;;;;;14.10;8.47;;;6.90;74.90;;;;;;6186742;23;20437;-60
2024/01/22 11:07:28;;;;;;;11.97;8.27;;;6.90;74.70;;;;;;6187642;23;20161;-60
2024/01/22 11:09:58;;;;;;;12.13;7.57;;;6.90;75.40;;;;;;6187685;23;20163;-65
2024/01/22 11:12:41;;;;;;;12.30;8.40;;;6.90;75.90;;;;;;6186803;23;20176;-60
2024/01/22 11:15:08;;;;;;;11.33;8.13;;;6.90;75.60;;;;;;6186946;23;20170;-61
2024/01/22 11:17:36;;;;;;;14.27;9.53;;;7.00;76.00;;;;;;6187287;23;20231;-61
2024/01/22 11:20:22;;;;;;;14.07;8.70;;;7.10;76.80;;;;;;6187025;23;20603;-60
2024/01/22 11:23:04;;;;;;;11.40;8.37;;;7.20;76.60;;;;;;6187047;23;20256;-61
2024/01/22 11:25:34;;;;;;;13.57;8.90;;;7.30;76.80;;;;;;6186981;23;20568;-62
2024/01/22 11:28:03;;;;;;;13.03;9.50;;;7.40;77.60;;;;;;6187188;23;20583;-62
2024/01/22 11:30:30;;;;;;;15.20;9.83;;;7.40;77.00;;;;;;6187066;23;20525;-61
2024/01/22 11:32:58;;;;;;;15.17;10.77;;;7.50;77.10;;;;;;6186645;23;20189;-61
2024/01/22 11:35:37;;;;;;;16.00;10.17;;;7.50;75.70;;;;;;6186233;23;20175;-60
2024/01/22 11:38:09;;;;;;;15.10;9.90;;;7.50;74.20;;;;;;6186643;23;20245;-60
2024/01/22 11:40:51;;;;;;;17.07;10.90;;;7.60;74.60;;;;;;6186813;23;20156;-60
2024/01/22 11:43:20;;;;;;;13.60;9.20;;;7.60;75.40;;;;;;6186812;23;20567;-60
2024/01/22 11:45:51;;;;;;;12.77;9.23;;;7.70;75.90;;;;;;6187031;23;20272;-60
2024/01/22 11:48:24;;;;;;;15.43;9.83;;;7.80;76.00;;;;;;6187192;23;20642;-59
2024/01/22 11:50:59;;;;;;;13.23;9.67;;;7.90;75.90;;;;;;6186739;23;20180;-60
2024/01/22 11:53:28;;;;;;;13.60;9.87;;;8.00;75.00;;;;;;6161356;23;20208;-60
2024/01/22 11:56:04;;;;;;;14.67;10.20;;;8.00;73.10;;;;;;6186615;23;20260;-60
2024/01/22 11:58:32;;;;;;;21.00;11.70;;;8.00;73.60;;;;;;6186479;23;20663;-60
2024/01/22 12:01:00;;;;;;;13.83;10.50;;;8.00;73.70;;;;;;6186784;23;20197;-61
2024/01/22 12:03:29;;;;;;;13.97;9.13;;;8.10;73.30;;;;;;6186506;23;20216;-61
2024/01/22 12:06:04;;;;;;;15.20;10.17;;;8.20;73.90;;;;;;6185924;23;20621;-62
2024/01/22 12:08:33;;;;;;;17.93;11.50;;;8.20;74.10;;;;;;6186523;23;20171;-61
2024/01/22 12:11:06;;;;;;;14.90;10.83;;;8.20;74.10;;;;;;6186747;23;20172;-61
2024/01/22 12:13:34;;;;;;;18.20;12.27;;;8.30;74.30;;;;;;6186250;23;20169;-61
2024/01/22 12:16:01;;;;;;;17.27;11.20;;;8.30;74.40;;;;;;6186391;23;20178;-60
2024/01/22 12:18:28;;;;;;;15.23;11.77;;;8.30;74.40;;;;;;6186601;23;20517;-61
2024/01/22 12:20:55;;;;;;;15.87;11.67;;;8.40;74.70;;;;;;6186718;23;20203;-60
2024/01/22 12:23:32;;;;;;;18.57;12.50;;;8.50;74.50;;;;;;6186223;23;20204;-61
2024/01/22 12:26:00;;;;;;;18.23;12.57;;;8.60;74.50;;;;;;6186479;23;20216;-61
2024/01/22 12:28:32;;;;;;;18.13;12.70;;;8.70;74.50;;;;;;6185764;23;20221;-61
2024/01/22 12:31:00;;;;;;;20.13;13.17;;;8.80;73.80;;;;;;6186450;23;20192;-60
2024/01/22 12:33:30;;;;;;;17.20;12.70;;;8.80;73.60;;;;;;6186450;23;20213;-61
2024/01/22 12:36:08;;;;;;;21.07;13.73;;;8.80;73.30;;;;;;6186533;23;20660;-60
2024/01/22 12:38:49;;;;;;;22.80;14.80;;;8.80;73.50;;;;;;6186597;23;20165;-60
2024/01/22 12:41:18;;;;;;;20.90;15.53;;;8.80;73.60;;;;;;6186294;23;20181;-60
2024/01/22 12:43:47;;;;;;;20.67;14.73;;;8.90;73.90;;;;;;6186235;23;20208;-60
2024/01/22 12:46:19;;;;;;;22.20;15.10;;;8.90;74.20;;;;;;6186371;23;20173;-61
2024/01/22 12:48:47;;;;;;;22.43;15.17;;;8.90;74.20;;;;;;6188061;23;20165;-61
2024/01/22 12:51:16;;;;;;;21.53;14.63;;;8.90;73.70;;;;;;6188268;23;20475;-60